Time;durP1;ratioP1;P1;durP2;ratioP2;P2;SDS_P1;SDS_P2;PMS_P1;PMS_P2;Temp;Humidity;BMP_temperature;BMP_pressure;BME280_temperature;BME280_humidity;BME280_pressure;Samples;Min_cycle;Max_cycle;Signal;HPM_P1;HPM_P2
2023/08/19 00:01:34;;;;;;;;;;;26.90;99.90;;;;;;5113813;28;19983;-71
2023/08/19 00:04:00;;;;;;;;;;;26.80;99.90;;;;;;5113622;28;20335;-70
2023/08/19 00:06:36;;;;;;;;;;;26.60;99.90;;;;;;5113236;28;20318;-70
2023/08/19 00:09:04;;;;;;;;;;;26.40;99.90;;;;;;5112979;28;20010;-70
2023/08/19 00:11:32;;;;;;;;;;;26.40;99.90;;;;;;5113077;28;19983;-70
2023/08/19 00:13:57;;;;;;;;;;;26.50;99.90;;;;;;5113109;28;19919;-70
2023/08/19 00:16:23;;;;;;;;;;;26.60;99.90;;;;;;5115332;28;19908;-70
2023/08/19 00:18:49;;;;;;;;;;;26.60;99.90;;;;;;5117336;28;19911;-70
2023/08/19 00:21:15;;;;;;;;;;;26.60;99.90;;;;;;5117123;28;20387;-70
2023/08/19 00:23:41;;;;;;;;;;;26.60;99.90;;;;;;5117033;28;19912;-70
2023/08/19 00:26:07;;;;;;;;;;;26.40;99.90;;;;;;5116907;28;19918;-70
2023/08/19 00:28:33;;;;;;;;;;;26.30;99.90;;;;;;5117477;28;20011;-72
2023/08/19 00:30:59;;;;;;;;;;;26.20;99.90;;;;;;5117185;28;19951;-70
2023/08/19 00:33:25;;;;;;;;;;;26.10;99.90;;;;;;5116534;28;19950;-71
2023/08/19 00:35:51;;;;;;;;;;;25.90;99.90;;;;;;5098768;28;19914;-72
2023/08/19 00:38:17;;;;;;;;;;;25.90;99.90;;;;;;5116755;28;19914;-70
2023/08/19 00:40:43;;;;;;;;;;;25.80;99.90;;;;;;5116518;28;19998;-69
2023/08/19 00:43:09;;;;;;;;;;;25.90;99.90;;;;;;5116833;28;19908;-70
2023/08/19 00:45:42;;;;;;;;;;;25.90;99.90;;;;;;5116545;28;19991;-70
2023/08/19 00:48:08;;;;;;;;;;;26.00;99.90;;;;;;5097761;28;19915;-70
2023/08/19 00:50:34;;;;;;;;;;;25.90;99.90;;;;;;5117032;28;19908;-70
2023/08/19 00:53:01;;;;;;;;;;;25.80;99.90;;;;;;5098396;28;19956;-70
2023/08/19 00:55:27;;;;;;;;;;;25.80;99.90;;;;;;5097907;28;20280;-70
2023/08/19 00:57:53;;;;;;;;;;;25.80;99.90;;;;;;5116949;28;20383;-71
2023/08/19 01:00:19;;;;;;;;;;;25.70;99.90;;;;;;5116354;28;19951;-70
2023/08/19 01:02:45;;;;;;;;;;;25.60;99.90;;;;;;5116832;28;19951;-70
2023/08/19 01:05:11;;;;;;;;;;;25.50;99.90;;;;;;5116328;28;20004;-70
2023/08/19 01:07:51;;;;;;;;;;;25.60;99.90;;;;;;5116531;28;19908;-70
2023/08/19 01:10:37;;;;;;;;;;;25.70;99.90;;;;;;5116008;28;19912;-71
2023/08/19 01:13:26;;;;;;;;;;;25.70;99.90;;;;;;5097796;28;20362;-70
2023/08/19 01:15:54;;;;;;;;;;;25.30;99.90;;;;;;5116300;28;19916;-70
2023/08/19 01:18:21;;;;;;;;;;;25.40;99.90;;;;;;5097667;28;19950;-70
2023/08/19 01:20:48;;;;;;;;;;;25.50;99.90;;;;;;5116318;28;19915;-70
2023/08/19 01:23:33;;;;;;;;;;;25.60;99.90;;;;;;5116092;28;19912;-70
2023/08/19 01:26:00;;;;;;;;;;;25.70;99.90;;;;;;5097653;28;19915;-70
2023/08/19 01:28:26;;;;;;;;;;;25.60;99.90;;;;;;5115466;28;19908;-71
2023/08/19 01:30:52;;;;;;;;;;;25.60;99.90;;;;;;5115808;28;19908;-70
2023/08/19 01:33:18;;;;;;;;;;;25.80;99.90;;;;;;5115789;28;19974;-70
2023/08/19 01:35:50;;;;;;;;;;;25.90;99.90;;;;;;5115995;28;19960;-70
2023/08/19 01:38:18;;;;;;;;;;;26.00;99.90;;;;;;5115668;28;19919;-70
2023/08/19 01:40:44;;;;;;;;;;;26.20;99.90;;;;;;5115398;28;19908;-70
2023/08/19 01:43:11;;;;;;;;;;;26.20;99.90;;;;;;5097217;28;20011;-70
2023/08/19 01:45:38;;;;;;;;;;;26.40;99.90;;;;;;5115512;28;20443;-70
2023/08/19 01:48:04;;;;;;;;;;;26.50;99.90;;;;;;5116023;28;19914;-71
2023/08/19 01:50:30;;;;;;;;;;;26.50;99.90;;;;;;5115450;28;19915;-70
2023/08/19 01:52:56;;;;;;;;;;;26.60;99.90;;;;;;5115307;28;20386;-70
2023/08/19 01:55:22;;;;;;;;;;;26.60;99.90;;;;;;5096870;28;19963;-70
2023/08/19 01:57:48;;;;;;;;;;;26.60;99.90;;;;;;5115614;28;20090;-70
2023/08/19 02:00:14;;;;;;;;;;;26.40;99.90;;;;;;5115617;28;19908;-70
2023/08/19 02:02:39;;;;;;;;;;;26.30;99.90;;;;;;5115758;28;20006;-70
2023/08/19 02:05:05;;;;;;;;;;;26.20;99.90;;;;;;5115222;28;19908;-70
2023/08/19 02:07:31;;;;;;;;;;;26.00;99.90;;;;;;5115168;28;19907;-70
2023/08/19 02:09:57;;;;;;;;;;;25.90;99.90;;;;;;5096605;28;19908;-70
2023/08/19 02:12:23;;;;;;;;;;;25.70;99.90;;;;;;5115028;28;20352;-71
2023/08/19 02:14:49;;;;;;;;;;;25.60;99.90;;;;;;5115073;28;19968;-70
2023/08/19 02:17:14;;;;;;;;;;;25.70;99.90;;;;;;5114984;28;19912;-70
2023/08/19 02:19:40;;;;;;;;;;;25.70;99.90;;;;;;5114881;28;20028;-70
2023/08/19 02:22:07;;;;;;;;;;;25.80;99.90;;;;;;5116795;28;19958;-70
2023/08/19 02:24:33;;;;;;;;;;;25.80;99.90;;;;;;5115053;28;19908;-70
2023/08/19 02:26:59;;;;;;;;;;;26.00;99.90;;;;;;5115033;28;19907;-70
2023/08/19 02:29:25;;;;;;;;;;;26.20;99.90;;;;;;5114879;28;20359;-69
2023/08/19 02:31:50;;;;;;;;;;;26.30;99.90;;;;;;5114654;28;20002;-70
2023/08/19 02:34:16;;;;;;;;;;;26.40;99.90;;;;;;5114111;28;20286;-71
2023/08/19 02:36:42;;;;;;;;;;;26.40;99.90;;;;;;5096252;28;20379;-70
2023/08/19 02:39:08;;;;;;;;;;;26.40;99.90;;;;;;5114095;28;19908;-71
2023/08/19 02:41:33;;;;;;;;;;;26.40;99.90;;;;;;5114422;28;19907;-70
2023/08/19 02:43:59;;;;;;;;;;;26.50;99.90;;;;;;5114462;28;19907;-71
2023/08/19 02:46:25;;;;;;;;;;;26.50;99.90;;;;;;5114561;28;19908;-70
2023/08/19 02:48:51;;;;;;;;;;;26.60;99.90;;;;;;5114282;28;19908;-72
2023/08/19 02:51:17;;;;;;;;;;;26.70;99.90;;;;;;5114282;28;19953;-71
2023/08/19 02:53:43;;;;;;;;;;;26.70;99.90;;;;;;5114753;28;19912;-71
2023/08/19 02:56:09;;;;;;;;;;;26.70;99.90;;;;;;5114112;28;19939;-71
2023/08/19 02:58:35;;;;;;;;;;;26.70;99.90;;;;;;5114228;28;19908;-70
2023/08/19 03:01:00;;;;;;;;;;;26.70;99.90;;;;;;5114552;28;20385;-70
2023/08/19 03:03:29;;;;;;;;;;;26.70;99.90;;;;;;5114070;28;20275;-70
2023/08/19 03:06:01;;;;;;;;;;;26.70;99.90;;;;;;5114191;28;19998;-71
2023/08/19 03:08:27;;;;;;;;;;;26.80;99.90;;;;;;5113917;28;19951;-71
2023/08/19 03:10:52;;;;;;;;;;;26.80;99.90;;;;;;5113904;28;20309;-70
2023/08/19 03:13:18;;;;;;;;;;;26.80;99.90;;;;;;5113841;28;19915;-71
2023/08/19 03:15:44;;;;;;;;;;;26.80;99.90;;;;;;5096239;28;19912;-71
2023/08/19 03:18:10;;;;;;;;;;;26.80;99.90;;;;;;5113807;28;19912;-70
2023/08/19 03:20:36;;;;;;;;;;;26.90;99.90;;;;;;5113705;28;19952;-71
2023/08/19 03:23:01;;;;;;;;;;;26.90;99.90;;;;;;5113969;28;20271;-71
2023/08/19 03:25:27;;;;;;;;;;;26.90;99.90;;;;;;5113608;28;19908;-71
2023/08/19 03:27:53;;;;;;;;;;;26.90;99.90;;;;;;5114260;28;19908;-71
2023/08/19 03:30:19;;;;;;;;;;;26.90;99.90;;;;;;5113560;28;19914;-70
2023/08/19 03:32:45;;;;;;;;;;;26.90;99.90;;;;;;5095194;28;19954;-71
2023/08/19 03:35:11;;;;;;;;;;;26.90;99.90;;;;;;5113797;28;19916;-71
2023/08/19 03:37:36;;;;;;;;;;;27.00;99.90;;;;;;5113590;28;19978;-71
2023/08/19 03:40:03;;;;;;;;;;;26.90;99.90;;;;;;5095110;28;19908;-71
2023/08/19 03:42:29;;;;;;;;;;;26.90;99.90;;;;;;5113824;28;19908;-70
2023/08/19 03:44:55;;;;;;;;;;;26.80;99.90;;;;;;5113803;28;19915;-71
2023/08/19 03:47:21;;;;;;;;;;;26.80;99.90;;;;;;5113591;28;19907;-71
2023/08/19 03:49:47;;;;;;;;;;;26.70;99.90;;;;;;5114350;28;19943;-71
2023/08/19 03:52:13;;;;;;;;;;;26.70;99.90;;;;;;5117763;28;19946;-70
2023/08/19 03:54:39;;;;;;;;;;;26.70;99.90;;;;;;5117937;28;20014;-71
2023/08/19 03:57:05;;;;;;;;;;;26.70;99.90;;;;;;5117987;28;19951;-71
2023/08/19 03:59:30;;;;;;;;;;;26.70;99.90;;;;;;5117645;28;19976;-71
2023/08/19 04:01:56;;;;;;;;;;;26.70;99.90;;;;;;5117623;28;19960;-71
2023/08/19 04:04:23;;;;;;;;;;;26.70;99.90;;;;;;5118058;28;19943;-70
2023/08/19 04:06:48;;;;;;;;;;;26.70;99.90;;;;;;5117428;28;20279;-71
2023/08/19 04:09:14;;;;;;;;;;;26.70;99.90;;;;;;5117145;28;19908;-71
2023/08/19 04:11:40;;;;;;;;;;;26.70;99.90;;;;;;5117693;28;19912;-71
2023/08/19 04:14:06;;;;;;;;;;;26.70;99.90;;;;;;5098845;28;19973;-70
2023/08/19 04:16:32;;;;;;;;;;;26.70;99.90;;;;;;5117510;28;19915;-70
2023/08/19 04:18:58;;;;;;;;;;;26.60;99.90;;;;;;5098785;28;19912;-69
2023/08/19 04:21:23;;;;;;;;;;;26.50;99.90;;;;;;5117234;28;19915;-70
2023/08/19 04:23:49;;;;;;;;;;;26.60;99.90;;;;;;5117548;28;19907;-71
2023/08/19 04:26:15;;;;;;;;;;;26.60;99.90;;;;;;5116899;28;20322;-70
2023/08/19 04:28:41;;;;;;;;;;;26.70;99.90;;;;;;5117561;28;19916;-71
2023/08/19 04:31:07;;;;;;;;;;;26.70;99.90;;;;;;5116885;28;19908;-72
2023/08/19 04:33:34;;;;;;;;;;;26.70;99.90;;;;;;5098437;28;20267;-70
2023/08/19 04:36:00;;;;;;;;;;;26.70;99.90;;;;;;5117396;28;19912;-70
2023/08/19 04:38:26;;;;;;;;;;;26.60;99.90;;;;;;5116754;28;19907;-71
2023/08/19 04:40:52;;;;;;;;;;;26.60;99.90;;;;;;5116648;28;19995;-70
2023/08/19 04:43:23;;;;;;;;;;;26.60;99.90;;;;;;5116792;28;19907;-72
2023/08/19 04:45:49;;;;;;;;;;;26.60;99.90;;;;;;5117175;28;19911;-70
2023/08/19 04:48:15;;;;;;;;;;;26.60;99.90;;;;;;5116661;28;19960;-71
2023/08/19 04:50:41;;;;;;;;;;;26.60;99.90;;;;;;5116822;28;20280;-71
2023/08/19 04:53:07;;;;;;;;;;;26.70;99.90;;;;;;5116484;28;19916;-71
2023/08/19 04:55:33;;;;;;;;;;;26.70;99.90;;;;;;5097935;28;20002;-70
2023/08/19 04:57:58;;;;;;;;;;;26.70;99.90;;;;;;5116737;28;19912;-70
2023/08/19 05:00:24;;;;;;;;;;;26.70;99.90;;;;;;5116528;28;19908;-71
2023/08/19 05:02:50;;;;;;;;;;;26.70;99.90;;;;;;5115741;28;19911;-70
2023/08/19 05:05:16;;;;;;;;;;;26.70;99.90;;;;;;5097904;28;19993;-71
2023/08/19 05:07:42;;;;;;;;;;;26.70;99.90;;;;;;5098069;28;19915;-71
2023/08/19 05:10:08;;;;;;;;;;;26.70;99.90;;;;;;5116062;28;19914;-70
2023/08/19 05:12:34;;;;;;;;;;;26.80;99.90;;;;;;5098252;28;19915;-71
2023/08/19 05:15:00;;;;;;;;;;;26.90;99.90;;;;;;5116189;28;19916;-72
2023/08/19 05:17:26;;;;;;;;;;;26.90;99.90;;;;;;5115939;28;20003;-71
2023/08/19 05:19:54;;;;;;;;;;;27.00;99.90;;;;;;5116041;28;19908;-71
2023/08/19 05:22:25;;;;;;;;;;;27.20;99.90;;;;;;5116289;28;19911;-70
2023/08/19 05:24:50;;;;;;;;;;;27.40;99.90;;;;;;5117009;28;20014;-70
2023/08/19 05:27:17;;;;;;;;;;;27.70;99.90;;;;;;5116360;28;20193;-71
2023/08/19 05:29:43;;;;;;;;;;;28.20;99.90;;;;;;5115661;28;19908;-71
2023/08/19 05:32:08;;;;;;;;;;;28.80;99.90;;;;;;5115660;28;19907;-71
2023/08/19 05:34:34;;;;;;;;;;;29.30;99.40;;;;;;5115506;28;20288;-71
2023/08/19 05:37:02;;;;;;;;;;;29.90;98.90;;;;;;5115666;28;19912;-71
2023/08/19 05:39:28;;;;;;;;;;;30.60;98.80;;;;;;5115798;28;19951;-71
2023/08/19 05:41:54;;;;;;;;;;;31.00;98.10;;;;;;5115869;28;19965;-71
2023/08/19 05:44:20;;;;;;;;;;;31.20;98.10;;;;;;5115436;28;19965;-71
2023/08/19 05:46:46;;;;;;;;;;;31.40;97.00;;;;;;5115460;28;19912;-70
2023/08/19 05:49:12;;;;;;;;;;;32.00;97.00;;;;;;5115432;28;20379;-71
2023/08/19 05:51:37;;;;;;;;;;;32.80;96.50;;;;;;5115425;28;19998;-71
2023/08/19 05:54:03;;;;;;;;;;;33.30;97.30;;;;;;5115298;28;19939;-71
2023/08/19 05:56:29;;;;;;;;;;;34.60;96.00;;;;;;5115235;28;19908;-71
2023/08/19 05:58:55;;;;;;;;;;;35.00;93.20;;;;;;5115267;28;19998;-72
2023/08/19 06:01:21;;;;;;;;;;;35.10;92.20;;;;;;5115753;28;19926;-72
2023/08/19 06:03:47;;;;;;;;;;;35.80;91.60;;;;;;5115342;28;19908;-71
2023/08/19 06:06:13;;;;;;;;;;;35.30;91.20;;;;;;5115153;28;19908;-71
2023/08/19 06:08:39;;;;;;;;;;;35.00;91.30;;;;;;5115396;28;19907;-71
2023/08/19 06:11:06;;;;;;;;;;;34.90;91.20;;;;;;5114842;28;19908;-71
2023/08/19 06:13:33;;;;;;;;;;;35.30;91.10;;;;;;5113859;28;19908;-71
2023/08/19 06:15:59;;;;;;;;;;;35.50;90.90;;;;;;5096647;28;19970;-72
2023/08/19 06:18:25;;;;;;;;;;;36.50;90.10;;;;;;5114908;28;20379;-71
2023/08/19 06:20:51;;;;;;;;;;;36.20;89.30;;;;;;5114865;28;19935;-71
2023/08/19 06:23:20;;;;;;;;;;;36.20;89.20;;;;;;5114914;28;20276;-72
2023/08/19 06:25:47;;;;;;;;;;;36.40;89.20;;;;;;5114613;28;19995;-72
2023/08/19 06:28:13;;;;;;;;;;;37.10;87.60;;;;;;5114721;28;19938;-71
2023/08/19 06:30:39;;;;;;;;;;;38.00;86.10;;;;;;5114867;28;19914;-72
2023/08/19 06:33:05;;;;;;;;;;;38.80;84.50;;;;;;5114555;28;20291;-72
2023/08/19 06:35:31;;;;;;;;;;;38.60;83.10;;;;;;5114859;28;19927;-72
2023/08/19 06:37:59;;;;;;;;;;;39.10;83.30;;;;;;5114380;28;19908;-71
2023/08/19 06:40:26;;;;;;;;;;;39.90;84.30;;;;;;5114632;28;19907;-72
2023/08/19 06:42:53;;;;;;;;;;;41.40;82.10;;;;;;5114406;28;20279;-71
2023/08/19 06:45:19;;;;;;;;;;;40.90;80.30;;;;;;5096163;28;20355;-72
2023/08/19 06:47:47;;;;;;;;;;;40.70;83.80;;;;;;5114213;28;19961;-72
2023/08/19 06:50:14;;;;;;;;;;;41.20;84.90;;;;;;5114660;28;19908;-72
2023/08/19 06:52:40;;;;;;;;;;;42.10;83.00;;;;;;5117007;28;19960;-72
2023/08/19 06:55:06;;;;;;;;;;;42.40;82.50;;;;;;5115664;28;20026;-72
2023/08/19 06:57:35;;;;;;;;;;;42.60;81.40;;;;;;5114179;28;19914;-72
2023/08/19 07:00:09;;;;;;;;;;;42.60;80.30;;;;;;5114646;28;19919;-71
2023/08/19 07:02:36;;;;;;;;;;;42.00;79.90;;;;;;5095789;28;19908;-71
2023/08/19 07:05:05;;;;;;;;;;;42.00;78.40;;;;;;5114324;28;19908;-71
2023/08/19 07:07:33;;;;;;;;;;;42.10;76.50;;;;;;5113846;28;19912;-71
2023/08/19 07:09:59;;;;;;;;;;;42.70;75.40;;;;;;5113888;28;19919;-71
2023/08/19 07:12:25;;;;;;;;;;;42.30;75.20;;;;;;5113976;28;19907;-71
2023/08/19 07:14:50;;;;;;;;;;;41.80;75.80;;;;;;5114193;28;19924;-71
2023/08/19 07:17:20;;;;;;;;;;;41.70;78.00;;;;;;5113973;28;19908;-71
2023/08/19 07:19:47;;;;;;;;;;;42.10;79.50;;;;;;5113942;28;19912;-73
2023/08/19 07:22:13;;;;;;;;;;;42.10;80.40;;;;;;5113783;28;19907;-71
2023/08/19 07:24:42;;;;;;;;;;;41.30;82.00;;;;;;5113666;28;19908;-73
2023/08/19 07:27:09;;;;;;;;;;;41.10;83.60;;;;;;5114208;28;19953;-72
2023/08/19 07:29:35;;;;;;;;;;;40.50;84.90;;;;;;5113726;28;20371;-72
2023/08/19 07:32:02;;;;;;;;;;;40.10;87.40;;;;;;5113684;28;19912;-72
2023/08/19 07:34:28;;;;;;;;;;;40.40;88.80;;;;;;5113316;28;19969;-71
2023/08/19 07:36:57;;;;;;;;;;;39.80;90.30;;;;;;5112851;28;20312;-71
2023/08/19 07:39:23;;;;;;;;;;;38.70;91.30;;;;;;5114149;28;20221;-71
2023/08/19 07:41:49;;;;;;;;;;;37.40;92.40;;;;;;5113182;28;19999;-71
2023/08/19 07:44:15;;;;;;;;;;;36.30;93.30;;;;;;5114295;28;20327;-71
2023/08/19 07:46:40;;;;;;;;;;;36.40;93.80;;;;;;5113341;28;19959;-71
2023/08/19 07:49:06;;;;;;;;;;;35.90;94.90;;;;;;5113736;28;19976;-71
2023/08/19 07:51:32;;;;;;;;;;;35.90;94.80;;;;;;5113447;28;20006;-71
2023/08/19 07:53:58;;;;;;;;;;;35.60;95.20;;;;;;5113273;28;19970;-71
2023/08/19 07:56:24;;;;;;;;;;;35.70;95.40;;;;;;5113375;28;20358;-71
2023/08/19 07:58:49;;;;;;;;;;;36.00;95.50;;;;;;5113461;28;19908;-72
2023/08/19 08:01:16;;;;;;;;;;;36.40;95.70;;;;;;5113861;28;19911;-71
2023/08/19 08:03:42;;;;;;;;;;;36.60;95.40;;;;;;5113581;28;20375;-71
2023/08/19 08:06:07;;;;;;;;;;;36.50;95.40;;;;;;5113862;28;19907;-71
2023/08/19 08:08:33;;;;;;;;;;;36.30;95.90;;;;;;5113559;28;19922;-71
2023/08/19 08:10:59;;;;;;;;;;;36.30;96.40;;;;;;5113100;28;19908;-71
2023/08/19 08:13:27;;;;;;;;;;;36.00;96.60;;;;;;5113124;28;19953;-71
2023/08/19 08:15:53;;;;;;;;;;;36.20;96.70;;;;;;5113508;28;19916;-73
2023/08/19 08:18:19;;;;;;;;;;;36.60;97.00;;;;;;5113398;28;19916;-71
2023/08/19 08:20:44;;;;;;;;;;;35.70;98.00;;;;;;5113765;28;20002;-72
2023/08/19 08:23:10;;;;;;;;;;;35.50;97.80;;;;;;5114106;28;20002;-71
2023/08/19 08:25:37;;;;;;;;;;;35.20;98.30;;;;;;5114100;28;20013;-72
2023/08/19 08:28:03;;;;;;;;;;;35.60;98.50;;;;;;5113077;28;19907;-72
2023/08/19 08:30:29;;;;;;;;;;;35.40;98.30;;;;;;5094808;28;19914;-72
2023/08/19 08:32:55;;;;;;;;;;;34.90;98.70;;;;;;5112839;28;19908;-71
2023/08/19 08:35:21;;;;;;;;;;;35.20;99.50;;;;;;5113503;28;19927;-72
2023/08/19 08:37:46;;;;;;;;;;;35.30;99.90;;;;;;5115027;28;20278;-71
2023/08/19 08:40:12;;;;;;;;;;;35.40;98.90;;;;;;5116540;28;20039;-72
2023/08/19 08:42:39;;;;;;;;;;;35.70;98.10;;;;;;5117183;28;19947;-71
2023/08/19 08:45:05;;;;;;;;;;;35.50;97.50;;;;;;5116608;28;19908;-71
2023/08/19 08:47:31;;;;;;;;;;;35.50;97.40;;;;;;5116868;28;19908;-71
2023/08/19 08:49:58;;;;;;;;;;;35.60;97.40;;;;;;5116717;28;20359;-71
2023/08/19 08:52:24;;;;;;;;;;;35.30;96.90;;;;;;5116820;28;20368;-71
2023/08/19 08:54:52;;;;;;;;;;;34.80;97.70;;;;;;5097895;28;20049;-71
2023/08/19 08:57:19;;;;;;;;;;;34.90;99.10;;;;;;5098214;28;20027;-72
2023/08/19 08:59:45;;;;;;;;;;;34.90;99.50;;;;;;5098201;28;20436;-71
2023/08/19 09:02:12;;;;;;;;;;;34.70;99.90;;;;;;5116807;28;19907;-71
2023/08/19 09:04:42;;;;;;;;;;;34.80;99.90;;;;;;5116413;28;19961;-71
2023/08/19 09:07:13;;;;;;;;;;;35.10;99.90;;;;;;5116352;28;19908;-72
2023/08/19 09:09:40;;;;;;;;;;;34.70;99.90;;;;;;5116622;28;20020;-72
2023/08/19 09:12:10;;;;;;;;;;;35.10;99.90;;;;;;5116265;28;19915;-71
2023/08/19 09:14:40;;;;;;;;;;;34.80;99.90;;;;;;5097802;28;19915;-70
2023/08/19 09:17:06;;;;;;;;;;;34.90;99.90;;;;;;5116747;28;19918;-71
2023/08/19 09:19:32;;;;;;;;;;;34.60;99.90;;;;;;5116051;28;20010;-71
2023/08/19 09:22:07;;;;;;;;;;;34.30;99.90;;;;;;5097373;28;19966;-72
2023/08/19 09:24:35;;;;;;;;;;;34.60;99.90;;;;;;5116295;28;20263;-71
2023/08/19 09:27:01;;;;;;;;;;;34.50;99.90;;;;;;5115839;28;20424;-71
2023/08/19 09:29:27;;;;;;;;;;;34.10;99.90;;;;;;5115928;28;19912;-71
2023/08/19 09:31:56;;;;;;;;;;;34.10;99.90;;;;;;5115872;28;19960;-71
2023/08/19 09:34:22;;;;;;;;;;;34.20;99.90;;;;;;5115596;28;19924;-72
2023/08/19 09:36:48;;;;;;;;;;;34.50;99.90;;;;;;5097309;28;19935;-71
2023/08/19 09:39:14;;;;;;;;;;;34.00;99.90;;;;;;5116190;28;19915;-71
2023/08/19 09:41:40;;;;;;;;;;;33.90;99.90;;;;;;5115389;28;20014;-71
2023/08/19 09:44:15;;;;;;;;;;;34.00;99.90;;;;;;5115620;28;19915;-71
2023/08/19 09:46:42;;;;;;;;;;;34.00;99.90;;;;;;5116131;28;19908;-71
2023/08/19 09:49:09;;;;;;;;;;;34.10;99.90;;;;;;5115271;28;19908;-71
2023/08/19 09:51:35;;;;;;;;;;;34.30;99.90;;;;;;5117741;28;20256;-72
2023/08/19 09:54:09;;;;;;;;;;;34.30;99.90;;;;;;5116959;28;19923;-72
2023/08/19 09:56:35;;;;;;;;;;;34.40;99.90;;;;;;5096961;28;19912;-71
2023/08/19 09:59:01;;;;;;;;;;;34.10;99.90;;;;;;5115285;28;19908;-71
2023/08/19 10:01:27;;;;;;;;;;;34.00;99.90;;;;;;5115204;28;20371;-70
2023/08/19 10:03:53;;;;;;;;;;;34.10;99.90;;;;;;5115559;28;20336;-71
2023/08/19 10:06:23;;;;;;;;;;;33.50;99.90;;;;;;5115176;28;19907;-70
2023/08/19 10:08:56;;;;;;;;;;;33.90;99.90;;;;;;5115069;28;20286;-70
2023/08/19 10:11:22;;;;;;;;;;;34.00;99.90;;;;;;5115188;28;19915;-71
2023/08/19 10:13:49;;;;;;;;;;;34.00;99.90;;;;;;5096713;28;19908;-72
2023/08/19 10:16:15;;;;;;;;;;;33.90;99.20;;;;;;5105338;28;19966;-71
2023/08/19 10:18:43;;;;;;;;;;;34.10;99.90;;;;;;5086782;28;19908;-72
2023/08/19 10:21:10;;;;;;;;;;;34.10;99.90;;;;;;5094946;28;19908;-70
2023/08/19 10:23:41;;;;;;;;;;;34.20;99.90;;;;;;5102765;28;19919;-67
2023/08/19 10:26:07;;;;;;;;;;;33.90;99.90;;;;;;5093307;28;20391;-72
2023/08/19 10:28:33;;;;;;;;;;;34.20;99.90;;;;;;5093067;28;19909;-72
2023/08/19 10:31:05;;;;;;;;;;;34.00;99.60;;;;;;5092923;28;19952;-72
2023/08/19 10:33:41;;;;;;;;;;;34.10;99.30;;;;;;5093609;28;20001;-72
2023/08/19 10:36:08;;;;;;;;;;;34.20;98.80;;;;;;5094043;28;19982;-72
2023/08/19 10:38:41;;;;;;;;;;;34.20;96.80;;;;;;5093939;28;19931;-71
2023/08/19 10:41:15;;;;;;;;;;;34.50;96.70;;;;;;5075459;28;19933;-71
2023/08/19 10:43:48;;;;;;;;;;;34.60;96.30;;;;;;5093980;28;20257;-71
2023/08/19 10:46:18;;;;;;;;;;;34.70;97.10;;;;;;5075835;28;19909;-72
2023/08/19 10:48:50;;;;;;;;;;;34.10;99.90;;;;;;5094547;28;20378;-71
2023/08/19 10:51:19;;;;;;;;;;;34.10;99.90;;;;;;5094202;28;20283;-72
2023/08/19 10:54:06;;;;;;;;;;;34.60;99.90;;;;;;5111175;28;19908;-71
2023/08/19 10:56:32;;;;;;;;;;;34.60;99.90;;;;;;5113893;28;19951;-71
2023/08/19 10:58:59;;;;;;;;;;;34.50;99.90;;;;;;5113648;28;20283;-71
2023/08/19 11:01:29;;;;;;;;;;;34.40;99.90;;;;;;5114009;28;20340;-72
2023/08/19 11:03:58;;;;;;;;;;;33.70;99.90;;;;;;5114530;28;20254;-71
2023/08/19 11:06:29;;;;;;;;;;;33.90;99.90;;;;;;5113890;28;19914;-72
2023/08/19 11:08:59;;;;;;;;;;;33.80;99.90;;;;;;5114670;28;19911;-72
2023/08/19 11:11:25;;;;;;;;;;;34.10;99.90;;;;;;5113737;28;19908;-71
2023/08/19 11:13:52;;;;;;;;;;;34.40;99.90;;;;;;5114393;28;19968;-73
2023/08/19 11:16:18;;;;;;;;;;;34.40;99.90;;;;;;5114114;28;20355;-72
2023/08/19 11:18:43;;;;;;;;;;;34.40;99.90;;;;;;5114436;28;19960;-71
2023/08/19 11:21:09;;;;;;;;;;;34.60;99.90;;;;;;5117055;28;19939;-71
2023/08/19 11:23:35;;;;;;;;;;;34.60;99.90;;;;;;5096458;28;19908;-72
2023/08/19 11:26:01;;;;;;;;;;;34.60;99.90;;;;;;5113439;28;19915;-72
2023/08/19 11:28:27;;;;;;;;;;;34.80;99.90;;;;;;5114017;28;19915;-71
2023/08/19 11:30:53;;;;;;;;;;;34.80;99.90;;;;;;5095496;28;20391;-71
2023/08/19 11:33:19;;;;;;;;;;;34.60;99.90;;;;;;5113333;28;20014;-72
2023/08/19 11:35:46;;;;;;;;;;;34.30;99.90;;;;;;5095284;28;19923;-72
2023/08/19 11:38:15;;;;;;;;;;;34.30;99.90;;;;;;5113507;28;20296;-72
2023/08/19 11:40:41;;;;;;;;;;;34.40;99.90;;;;;;5113527;28;19953;-71
2023/08/19 11:43:08;;;;;;;;;;;34.30;99.90;;;;;;5113485;28;19915;-71
2023/08/19 11:45:35;;;;;;;;;;;34.20;99.90;;;;;;5113856;28;19991;-71
2023/08/19 11:48:01;;;;;;;;;;;34.30;99.90;;;;;;5113572;28;20279;-73
2023/08/19 11:50:29;;;;;;;;;;;34.10;99.90;;;;;;5114036;28;19908;-72
2023/08/19 11:52:55;;;;;;;;;;;34.00;99.90;;;;;;5113508;28;19960;-72
2023/08/19 11:55:25;;;;;;;;;;;34.10;99.90;;;;;;5113221;28;19916;-72
2023/08/19 11:57:52;;;;;;;;;;;34.40;99.90;;;;;;5113704;28;19947;-71
2023/08/19 12:00:18;;;;;;;;;;;34.50;99.90;;;;;;5113490;28;19912;-72
2023/08/19 12:02:47;;;;;;;;;;;34.50;99.00;;;;;;5113348;28;19908;-72
2023/08/19 12:05:23;;;;;;;;;;;34.60;99.90;;;;;;5113612;28;19958;-72
2023/08/19 12:07:49;;;;;;;;;;;34.60;99.90;;;;;;5113324;28;19908;-71
2023/08/19 12:10:15;;;;;;;;;;;34.50;98.10;;;;;;5094817;28;20386;-71
2023/08/19 12:12:42;;;;;;;;;;;34.50;96.80;;;;;;5117715;28;19909;-72
2023/08/19 12:15:08;;;;;;;;;;;34.40;97.20;;;;;;5117348;28;19989;-71
2023/08/19 12:17:34;;;;;;;;;;;34.40;95.90;;;;;;5099018;28;19947;-72
2023/08/19 12:20:00;;;;;;;;;;;34.10;95.40;;;;;;5117337;28;19936;-71
2023/08/19 12:22:26;;;;;;;;;;;33.90;94.40;;;;;;5117185;28;19907;-72
2023/08/19 12:24:51;;;;;;;;;;;33.70;93.90;;;;;;5117548;28;19986;-72
2023/08/19 12:27:17;;;;;;;;;;;33.80;93.70;;;;;;5099067;28;19912;-72
2023/08/19 12:29:43;;;;;;;;;;;33.90;93.60;;;;;;5117144;28;19907;-72
2023/08/19 12:32:09;;;;;;;;;;;34.10;93.90;;;;;;5117088;28;19908;-71
2023/08/19 12:34:34;;;;;;;;;;;34.00;93.80;;;;;;5116806;28;19920;-72
2023/08/19 12:37:00;;;;;;;;;;;33.80;92.60;;;;;;5098544;28;19923;-71
2023/08/19 12:39:26;;;;;;;;;;;33.50;93.40;;;;;;5117137;28;19914;-72
2023/08/19 12:41:52;;;;;;;;;;;33.40;93.30;;;;;;5116528;28;19954;-72
2023/08/19 12:44:18;;;;;;;;;;;33.40;94.70;;;;;;5117387;28;20333;-71
2023/08/19 12:46:44;;;;;;;;;;;33.70;95.40;;;;;;5116817;28;19960;-73
2023/08/19 12:49:10;;;;;;;;;;;33.70;96.30;;;;;;5116755;28;19999;-71
2023/08/19 12:51:36;;;;;;;;;;;33.50;96.10;;;;;;5117003;28;19914;-71
2023/08/19 12:54:04;;;;;;;;;;;33.80;96.30;;;;;;5098043;28;19919;-72
2023/08/19 12:56:30;;;;;;;;;;;33.80;96.00;;;;;;5098034;28;20279;-71
2023/08/19 12:58:55;;;;;;;;;;;33.80;95.90;;;;;;5116489;28;19915;-72
2023/08/19 13:01:21;;;;;;;;;;;34.00;96.00;;;;;;5116542;28;20381;-71
2023/08/19 13:03:47;;;;;;;;;;;33.80;96.40;;;;;;5116772;28;20417;-71
2023/08/19 13:06:13;;;;;;;;;;;33.80;96.70;;;;;;5116323;28;19932;-71
2023/08/19 13:08:39;;;;;;;;;;;33.90;96.60;;;;;;5116345;28;19959;-72
2023/08/19 13:11:05;;;;;;;;;;;33.80;96.80;;;;;;5116052;28;19914;-71
2023/08/19 13:13:30;;;;;;;;;;;34.00;94.60;;;;;;5097834;28;20348;-71
2023/08/19 13:15:56;;;;;;;;;;;34.10;92.10;;;;;;5116115;28;19922;-72
2023/08/19 13:18:22;;;;;;;;;;;34.30;92.10;;;;;;5116403;28;19965;-71
2023/08/19 13:20:48;;;;;;;;;;;34.50;92.60;;;;;;5116050;28;19915;-72
2023/08/19 13:23:14;;;;;;;;;;;34.30;92.10;;;;;;5115441;28;19915;-71
2023/08/19 13:25:39;;;;;;;;;;;34.30;92.40;;;;;;5115930;28;19915;-71
2023/08/19 13:28:05;;;;;;;;;;;34.10;92.80;;;;;;5116554;28;19908;-71
2023/08/19 13:30:31;;;;;;;;;;;34.40;92.60;;;;;;5115939;28;20352;-72
2023/08/19 13:32:57;;;;;;;;;;;34.30;92.40;;;;;;5097357;28;20272;-71
2023/08/19 13:35:23;;;;;;;;;;;34.50;91.30;;;;;;5116036;28;19916;-71
2023/08/19 13:37:49;;;;;;;;;;;34.20;91.70;;;;;;5115809;28;19931;-72
2023/08/19 13:40:15;;;;;;;;;;;34.40;92.00;;;;;;5115476;28;19994;-72
2023/08/19 13:42:40;;;;;;;;;;;34.30;92.30;;;;;;5115996;28;19931;-72
2023/08/19 13:45:07;;;;;;;;;;;34.40;92.60;;;;;;5115958;28;19953;-71
2023/08/19 13:47:35;;;;;;;;;;;34.30;92.30;;;;;;5115587;28;19912;-72
2023/08/19 13:50:01;;;;;;;;;;;34.60;92.20;;;;;;5115807;28;19954;-71
2023/08/19 13:52:40;;;;;;;;;;;34.30;92.80;;;;;;5115703;28;19939;-71
2023/08/19 13:55:07;;;;;;;;;;;34.20;93.20;;;;;;5115077;28;19916;-71
2023/08/19 13:57:33;;;;;;;;;;;34.20;93.50;;;;;;5115886;28;19911;-71
2023/08/19 13:59:59;;;;;;;;;;;34.00;93.70;;;;;;5115260;28;20073;-71
2023/08/19 14:02:25;;;;;;;;;;;34.00;93.80;;;;;;5115195;28;19915;-72
2023/08/19 14:04:51;;;;;;;;;;;33.90;93.10;;;;;;5115270;28;19915;-71
2023/08/19 14:07:18;;;;;;;;;;;34.10;92.10;;;;;;5115696;28;19908;-72
2023/08/19 14:09:44;;;;;;;;;;;34.10;92.10;;;;;;5115329;28;19915;-71
2023/08/19 14:12:09;;;;;;;;;;;34.00;92.90;;;;;;5115059;28;19908;-71
2023/08/19 14:14:36;;;;;;;;;;;33.90;93.00;;;;;;5114895;28;19916;-72